Terminal Aerodrome Forecast
Issued by NWS Charleston, WV

Current Version | Previous Version | Graphics & Text | Print | Product List | Glossary On
Versions: 1 2 3 4 5 6 7 8 9 10 11 12 13 14 15 16 17 18 19 20 21 22 23 24 25
635
FTUS41 KRLX 220520
TAFCRW
TAF
KCRW 220520Z 2206/2306 19003KT P6SM FEW060 OVC090
     FM221500 15006KT P6SM SCT250
     FM222100 18009KT P6SM OVC070
     FM230200 16011G17KT P6SM BKN060
     FM230300 19010G19KT 4SM -SHRA BKN060=

USA.gov is the U.S. government's official web portal to all federal, state and local government web resources and services.